createdAt,value
2023-01-25T00:00:20.146Z,102024.03
2023-01-25T00:02:46.836Z,102012.84
2023-01-25T00:05:13.566Z,102018.59
2023-01-25T00:07:40.186Z,102007.59
2023-01-25T00:10:10.205Z,102006.56
2023-01-25T00:12:37.548Z,102006.56
2023-01-25T00:15:04.941Z,102004.72
2023-01-25T00:17:31.736Z,101988.41
2023-01-25T00:19:58.369Z,101999.28
2023-01-25T00:22:24.998Z,101995.59
2023-01-25T00:24:51.606Z,101991.97
2023-01-25T00:27:18.229Z,101991.97
2023-01-25T00:29:44.920Z,101986.56
2023-01-25T00:32:11.623Z,101986.72
2023-01-25T00:34:46.999Z,101977.72
2023-01-25T00:37:18.462Z,101976.03
2023-01-25T00:39:45.435Z,101974.72
2023-01-25T00:42:13.033Z,101974.84
2023-01-25T00:44:40.077Z,101968.09
2023-01-25T00:47:07.172Z,101962.69
2023-01-25T00:49:34.113Z,101959.28
2023-01-25T00:52:01.350Z,101960.13
2023-01-25T00:54:28.016Z,101952.84
2023-01-25T00:56:56.517Z,101958.25
2023-01-25T00:59:24.561Z,101952.84
2023-01-25T01:01:52.749Z,101951.69
2023-01-25T01:04:20.430Z,101954.22
2023-01-25T01:06:47.193Z,101952.53
2023-01-25T01:09:17.879Z,101948.63
2023-01-25T01:11:45.293Z,101941.03
2023-01-25T01:14:13.080Z,101931.19
2023-01-25T01:16:39.942Z,101930.81
2023-01-25T01:19:06.634Z,101936.94
2023-01-25T01:21:33.296Z,101936.94
2023-01-25T01:24:00.155Z,101937.63
2023-01-25T01:26:26.934Z,101941.66
2023-01-25T01:28:53.582Z,101927.75
2023-01-25T01:31:23.569Z,101937.09
2023-01-25T01:33:52.198Z,101934.50
2023-01-25T01:36:21.609Z,101935.69
2023-01-25T01:38:52.077Z,101931.97
2023-01-25T01:41:19.253Z,101941.59
2023-01-25T01:43:46.051Z,101932.13
2023-01-25T01:46:37.575Z,101934.50
2023-01-25T01:49:33.701Z,101937.22
2023-01-25T01:52:10.806Z,101943.28
2023-01-25T01:54:47.386Z,101936.84
2023-01-25T01:57:26.179Z,101940.88
2023-01-25T02:00:10.329Z,101947.19
2023-01-25T02:02:37.146Z,101950.66
2023-01-25T02:05:07.270Z,101946.56
2023-01-25T02:07:36.693Z,101948.50
2023-01-25T02:10:11.720Z,101950.94
2023-01-25T02:12:39.495Z,101946.81
2023-01-25T02:15:07.302Z,101951.41
2023-01-25T02:17:37.243Z,101953.97
2023-01-25T02:20:15.727Z,101944.28
2023-01-25T02:23:11.262Z,101941.19
2023-01-25T02:25:38.189Z,101940.16
2023-01-25T02:28:13.041Z,101937.75
2023-01-25T02:30:39.746Z,101925.91
2023-01-25T02:33:06.356Z,101929.59
2023-01-25T02:35:44.491Z,101924.91
2023-01-25T02:38:15.202Z,101925.91
2023-01-25T02:41:15.686Z,101926.03
2023-01-25T02:43:42.348Z,101930.63
2023-01-25T02:46:18.594Z,101921.94
2023-01-25T02:48:45.382Z,101920.09
2023-01-25T02:51:12.274Z,101919.38
2023-01-25T02:53:38.930Z,101917.84
2023-01-25T02:56:05.782Z,101911.97
2023-01-25T02:58:32.421Z,101915.38
2023-01-25T03:00:59.978Z,101912.47
2023-01-25T03:03:26.590Z,101912.94
2023-01-25T03:05:53.216Z,101913.78
2023-01-25T03:08:19.882Z,101916.66
2023-01-25T03:10:46.533Z,101911.72
2023-01-25T03:13:13.277Z,101913.41
2023-01-25T03:15:39.931Z,101914.97
2023-01-25T03:18:06.556Z,101907.53
2023-01-25T03:20:33.423Z,101916.28
2023-01-25T03:23:00.041Z,101908.59
2023-01-25T03:25:27.159Z,101902.78
2023-01-25T03:27:54.323Z,101903.94
2023-01-25T03:30:20.995Z,101891.38
2023-01-25T03:32:47.612Z,101885.97
2023-01-25T03:35:14.281Z,101895.78
2023-01-25T03:37:40.885Z,101887.53
2023-01-25T03:40:08.128Z,101889.78
2023-01-25T03:42:34.839Z,101876.69
2023-01-25T03:45:01.941Z,101879.84
2023-01-25T03:47:28.709Z,101878.97
2023-01-25T03:49:55.308Z,101885.97
2023-01-25T03:52:24.280Z,101887.66
2023-01-25T03:54:50.931Z,101889.97
2023-01-25T03:57:17.635Z,101892.53
2023-01-25T03:59:44.300Z,101889.13
2023-01-25T04:02:12.840Z,101888.13
2023-01-25T04:04:39.525Z,101893.53
2023-01-25T04:07:06.137Z,101889.97
2023-01-25T04:09:32.772Z,101886.59
2023-01-25T04:11:59.457Z,101884.00
2023-01-25T04:14:43.374Z,101884.84
2023-01-25T04:17:10.962Z,101873.47
2023-01-25T04:19:37.899Z,101876.03
2023-01-25T04:22:05.151Z,101881.63
2023-01-25T04:24:32.006Z,101872.31
2023-01-25T04:26:58.704Z,101872.00
2023-01-25T04:29:35.529Z,101877.28
2023-01-25T04:32:07.096Z,101872.31
2023-01-25T04:34:33.915Z,101863.16
2023-01-25T04:37:00.819Z,101867.28
2023-01-25T04:39:27.463Z,101870.31
2023-01-25T04:41:54.723Z,101862.88
2023-01-25T04:44:21.468Z,101869.47
2023-01-25T04:46:48.819Z,101855.44
2023-01-25T04:49:15.457Z,101861.84
2023-01-25T04:51:42.128Z,101857.28
2023-01-25T04:54:08.756Z,101860.72
2023-01-25T04:56:36.367Z,101854.75
2023-01-25T04:59:03.083Z,101856.84
2023-01-25T05:01:30.157Z,101853.13
2023-01-25T05:03:56.833Z,101853.13
2023-01-25T05:06:23.438Z,101836.00
2023-01-25T05:08:50.063Z,101841.28
2023-01-25T05:11:16.679Z,101850.09
2023-01-25T05:13:43.373Z,101839.25
2023-01-25T05:16:10.008Z,101839.25
2023-01-25T05:18:47.985Z,101838.31
2023-01-25T05:21:34.056Z,101827.34
2023-01-25T05:24:01.576Z,101831.59
2023-01-25T05:26:46.647Z,101825.84
2023-01-25T05:29:13.970Z,101820.44
2023-01-25T05:31:40.863Z,101816.69
2023-01-25T05:34:09.404Z,101818.03
2023-01-25T05:36:36.064Z,101812.97
2023-01-25T05:39:06.603Z,101813.31
2023-01-25T05:41:34.023Z,101802.47
2023-01-25T05:44:01.136Z,101802.28
2023-01-25T05:46:28.619Z,101800.13
2023-01-25T05:48:55.259Z,101796.41
2023-01-25T05:51:22.277Z,101797.13
2023-01-25T05:53:49.033Z,101793.38
2023-01-25T05:56:15.673Z,101794.91
2023-01-25T05:58:42.370Z,101803.78
2023-01-25T06:01:09.077Z,101794.63
2023-01-25T06:03:35.874Z,101797.88
2023-01-25T06:06:03.038Z,101789.72
2023-01-25T06:08:30.989Z,101796.00
2023-01-25T06:10:58.175Z,101794.13
2023-01-25T06:13:24.973Z,101794.31
2023-01-25T06:15:56.461Z,101791.44
2023-01-25T06:18:27.235Z,101789.41
2023-01-25T06:20:57.803Z,101787.88
2023-01-25T06:23:24.697Z,101789.41
2023-01-25T06:25:53.815Z,101782.66
2023-01-25T06:28:20.755Z,101783.34
2023-01-25T06:30:47.511Z,101782.97
2023-01-25T06:33:14.930Z,101774.00
2023-01-25T06:35:42.666Z,101783.13
2023-01-25T06:38:09.689Z,101776.84
2023-01-25T06:40:36.789Z,101773.13
2023-01-25T06:43:11.240Z,101766.72
2023-01-25T06:45:38.386Z,101772.81
2023-01-25T06:48:05.145Z,101771.97
2023-01-25T06:50:31.899Z,101769.72
2023-01-25T06:52:58.617Z,101759.50
2023-01-25T06:55:25.340Z,101756.09
2023-01-25T06:57:51.979Z,101767.59
2023-01-25T07:00:19.130Z,101758.22
2023-01-25T07:02:45.950Z,101754.97
2023-01-25T07:05:12.673Z,101760.56
2023-01-25T07:07:39.347Z,101764.25
2023-01-25T07:10:07.234Z,101766.97
2023-01-25T07:12:34.300Z,101770.09
2023-01-25T07:15:00.968Z,101779.00
2023-01-25T07:17:27.771Z,101775.91
2023-01-25T07:19:54.400Z,101770.78
2023-01-25T07:22:21.685Z,101762.81
2023-01-25T07:24:52.197Z,101762.25
2023-01-25T07:27:18.870Z,101757.97
2023-01-25T07:29:45.496Z,101755.72
2023-01-25T07:32:14.196Z,101760.31
2023-01-25T07:34:40.949Z,101747.78
2023-01-25T07:37:09.286Z,101751.16
2023-01-25T07:39:36.234Z,101752.03
2023-01-25T07:42:03.666Z,101744.22
2023-01-25T07:44:30.805Z,101738.63
2023-01-25T07:46:57.452Z,101742.34
2023-01-25T07:49:24.138Z,101740.09
2023-01-25T07:51:50.772Z,101721.31
2023-01-25T07:54:17.451Z,101729.44
2023-01-25T07:56:44.640Z,101734.84
2023-01-25T07:59:11.324Z,101734.59
2023-01-25T08:01:39.911Z,101727.09
2023-01-25T08:04:06.875Z,101728.56
2023-01-25T08:06:38.355Z,101724.59
2023-01-25T08:09:20.196Z,101731.00
2023-01-25T08:11:49.288Z,101732.97
2023-01-25T08:14:16.911Z,101737.47
2023-01-25T08:16:43.570Z,101734.00
2023-01-25T08:19:11.673Z,101722.53
2023-01-25T08:21:38.791Z,101723.09
2023-01-25T08:24:07.156Z,101718.88
2023-01-25T08:26:35.840Z,101718.44
2023-01-25T08:29:03.153Z,101710.00
2023-01-25T08:31:32.049Z,101712.91
2023-01-25T08:33:59.771Z,101708.88
2023-01-25T08:36:28.295Z,101702.13
2023-01-25T08:39:03.239Z,101692.22
2023-01-25T08:41:32.297Z,101691.50
2023-01-25T08:43:59.989Z,101688.78
2023-01-25T08:46:30.532Z,101680.66
2023-01-25T08:49:00.373Z,101680.81
2023-01-25T08:51:27.914Z,101675.22
2023-01-25T08:53:54.794Z,101667.44
2023-01-25T08:56:21.668Z,101666.41
2023-01-25T08:58:49.962Z,101659.31
2023-01-25T09:01:18.110Z,101659.31
2023-01-25T09:03:48.075Z,101658.13
2023-01-25T09:06:15.612Z,101651.16
2023-01-25T09:08:42.450Z,101644.25
2023-01-25T09:11:19.519Z,101646.84
2023-01-25T09:13:48.494Z,101639.78
2023-01-25T09:16:18.244Z,101629.31
2023-01-25T09:18:45.284Z,101613.69
2023-01-25T09:21:16.798Z,101614.91
2023-01-25T09:23:57.412Z,101602.41
2023-01-25T09:26:31.529Z,101597.69
2023-01-25T09:28:58.938Z,101587.38
2023-01-25T09:31:27.320Z,101586.03
2023-01-25T09:33:54.242Z,101590.78
2023-01-25T09:36:21.278Z,101587.06
2023-01-25T09:38:48.563Z,101586.41
2023-01-25T09:41:40.147Z,101579.28
2023-01-25T09:44:16.022Z,101575.94
2023-01-25T09:46:48.893Z,101579.16
2023-01-25T09:49:39.829Z,101571.88
2023-01-25T09:52:21.695Z,101573.97
2023-01-25T09:54:48.565Z,101567.50
2023-01-25T09:57:26.601Z,101564.78
2023-01-25T09:59:54.305Z,101562.75
2023-01-25T10:02:59.880Z,101551.88
2023-01-25T10:05:31.192Z,101535.91
2023-01-25T10:08:06.975Z,101531.50
2023-01-25T10:10:38.811Z,101524.19
2023-01-25T10:13:12.053Z,101527.25
2023-01-25T10:15:48.298Z,101523.50
2023-01-25T10:18:27.044Z,101505.31
2023-01-25T10:20:59.082Z,101496.31
2023-01-25T10:23:34.675Z,101477.59
2023-01-25T10:26:13.555Z,101476.69
2023-01-25T10:28:47.920Z,101476.03
2023-01-25T10:31:34.615Z,101473.81
2023-01-25T10:34:12.974Z,101471.22
2023-01-25T10:36:39.765Z,101468.97
2023-01-25T10:39:07.830Z,101468.44
2023-01-25T10:41:42.240Z,101475.03
2023-01-25T10:44:24.829Z,101471.28
2023-01-25T10:47:21.024Z,101481.44
2023-01-25T10:49:53.819Z,101487.41
2023-01-25T10:52:23.750Z,101500.47
2023-01-25T10:55:26.246Z,101534.25
2023-01-25T10:57:58.036Z,101542.63
2023-01-25T11:00:30.716Z,101538.31
2023-01-25T11:02:58.567Z,101542.16
2023-01-25T11:05:33.740Z,101544.97
2023-01-25T11:08:16.410Z,101539.16
2023-01-25T11:10:45.966Z,101514.91
2023-01-25T11:13:15.803Z,101530.56
2023-01-25T11:15:45.133Z,101539.41
2023-01-25T11:18:16.242Z,101538.88
2023-01-25T11:20:42.879Z,101532.44
2023-01-25T11:23:35.641Z,101524.00
2023-01-25T11:26:20.008Z,101516.31
2023-01-25T11:28:49.168Z,101519.34
2023-01-25T11:31:21.348Z,101517.78
2023-01-25T11:33:48.085Z,101517.69
2023-01-25T11:36:42.459Z,101506.78
2023-01-25T11:39:28.287Z,101511.13
2023-01-25T11:42:25.929Z,101498.66
2023-01-25T11:44:58.914Z,101495.75
2023-01-25T11:48:03.975Z,101506.09
2023-01-25T11:50:42.396Z,101503.72
2023-01-25T11:53:30.428Z,101502.25
2023-01-25T11:56:22.670Z,101500.53
2023-01-25T11:59:05.465Z,101503.81
2023-01-25T12:01:35.151Z,101496.09
2023-01-25T12:04:04.531Z,101494.41
2023-01-25T12:06:39.165Z,101485.28
2023-01-25T12:09:27.099Z,101482.19
2023-01-25T12:12:13.133Z,101469.03
2023-01-25T12:14:48.984Z,101473.66
2023-01-25T12:17:54.153Z,101468.66
2023-01-25T12:20:39.621Z,101467.91
2023-01-25T12:23:35.313Z,101463.78
2023-01-25T12:26:19.181Z,101464.56
2023-01-25T12:29:20.440Z,101463.59
2023-01-25T12:32:03.209Z,101453.63
2023-01-25T12:34:36.893Z,101446.75
2023-01-25T12:37:14.290Z,101439.44
2023-01-25T12:40:10.069Z,101424.84
2023-01-25T12:42:52.163Z,101407.50
2023-01-25T12:45:32.873Z,101392.63
2023-01-25T12:48:14.768Z,101386.59
2023-01-25T12:50:52.263Z,101372.19
2023-01-25T12:53:40.578Z,101370.13
2023-01-25T12:56:10.003Z,101368.13
2023-01-25T12:58:48.406Z,101352.25
2023-01-25T13:01:21.240Z,101352.50
2023-01-25T13:04:13.503Z,101342.31
2023-01-25T13:06:59.903Z,101330.19
2023-01-25T13:09:29.963Z,101318.91
2023-01-25T13:11:57.326Z,101314.06
2023-01-25T13:14:30.204Z,101309.06
2023-01-25T13:17:25.231Z,101306.13
2023-01-25T13:19:53.468Z,101295.19
2023-01-25T13:22:45.100Z,101298.59
2023-01-25T13:25:17.755Z,101291.38
2023-01-25T13:27:44.439Z,101283.22
2023-01-25T13:30:20.173Z,101291.63
2023-01-25T13:32:49.931Z,101279.25
2023-01-25T13:35:29.304Z,101289.59
2023-01-25T13:38:22.608Z,101285.88
2023-01-25T13:41:05.218Z,101301.00
2023-01-25T13:43:32.324Z,101293.88
2023-01-25T13:45:59.110Z,101291.81
2023-01-25T13:48:29.575Z,101294.75
2023-01-25T13:51:03.463Z,101291.81
2023-01-25T13:53:33.457Z,101288.03
2023-01-25T13:56:00.222Z,101291.44
2023-01-25T13:58:29.629Z,101282.97
2023-01-25T14:00:59.421Z,101288.41
2023-01-25T14:03:29.894Z,101299.34
2023-01-25T14:05:59.515Z,101299.19
2023-01-25T14:08:26.933Z,101304.81
2023-01-25T14:10:55.137Z,101297.63
2023-01-25T14:13:23.792Z,101299.94
2023-01-25T14:15:57.741Z,101296.78
2023-01-25T14:18:33.468Z,101286.50
2023-01-25T14:21:19.955Z,101280.19
2023-01-25T14:23:48.788Z,101291.38
2023-01-25T14:26:17.725Z,101290.97
2023-01-25T14:28:58.978Z,101286.38
2023-01-25T14:31:33.023Z,101279.69
2023-01-25T14:33:59.824Z,101272.56
2023-01-25T14:36:30.156Z,101261.63
2023-01-25T14:38:58.700Z,101267.09
2023-01-25T14:41:59.840Z,101262.09
2023-01-25T14:44:29.088Z,101262.97
2023-01-25T14:47:26.954Z,101258.28
2023-01-25T14:49:53.673Z,101253.47
2023-01-25T14:52:24.794Z,101240.22
2023-01-25T14:54:56.117Z,101245.09
2023-01-25T14:57:31.175Z,101262.16
2023-01-25T14:59:59.402Z,101256.88
2023-01-25T15:02:44.826Z,101244.91
2023-01-25T15:05:30.087Z,101246.63
2023-01-25T15:07:59.026Z,101259.91
2023-01-25T15:10:34.882Z,101248.59
2023-01-25T15:13:12.776Z,101242.94
2023-01-25T15:15:50.808Z,101255.13
2023-01-25T15:18:43.586Z,101235.13
2023-01-25T15:21:13.061Z,101237.25
2023-01-25T15:23:42.316Z,101234.31
2023-01-25T15:26:29.175Z,101228.84
2023-01-25T15:29:12.308Z,101226.53
2023-01-25T15:31:39.324Z,101220.22
2023-01-25T15:34:06.540Z,101211.56
2023-01-25T15:36:33.705Z,101216.19
2023-01-25T15:39:00.892Z,101222.28
2023-01-25T15:41:27.559Z,101222.50
2023-01-25T15:43:54.271Z,101226.66
2023-01-25T15:46:27.454Z,101220.13
2023-01-25T15:48:55.586Z,101222.63
2023-01-25T15:51:23.682Z,101215.66
2023-01-25T15:53:50.990Z,101208.91
2023-01-25T15:56:24.765Z,101211.88
2023-01-25T15:58:54.200Z,101215.66
2023-01-25T16:01:23.037Z,101215.22
2023-01-25T16:03:49.800Z,101220.06
2023-01-25T16:06:25.402Z,101206.78
2023-01-25T16:08:52.183Z,101207.19
2023-01-25T16:11:18.825Z,101206.34
2023-01-25T16:13:45.948Z,101212.22
2023-01-25T16:16:22.662Z,101202.78
2023-01-25T16:18:50.689Z,101190.59
2023-01-25T16:21:17.658Z,101199.81
2023-01-25T16:23:44.374Z,101205.91
2023-01-25T16:26:28.854Z,101203.78
2023-01-25T16:28:56.097Z,101203.34
2023-01-25T16:31:32.543Z,101201.66
2023-01-25T16:34:00.710Z,101228.97
2023-01-25T16:36:29.079Z,101236.09
2023-01-25T16:38:55.773Z,101223.94
2023-01-25T16:41:23.073Z,101235.91
2023-01-25T16:43:49.981Z,101232.56
2023-01-25T16:46:17.831Z,101238.59
2023-01-25T16:48:46.471Z,101232.44
2023-01-25T16:51:17.492Z,101229.34
2023-01-25T16:53:45.645Z,101230.09
2023-01-25T16:56:29.410Z,101241.47
2023-01-25T16:59:00.086Z,101250.09
2023-01-25T17:01:27.710Z,101248.81
2023-01-25T17:03:55.821Z,101249.59
2023-01-25T17:06:22.461Z,101245.38
2023-01-25T17:08:49.964Z,101248.28
2023-01-25T17:11:22.681Z,101256.31
2023-01-25T17:13:53.603Z,101244.69
2023-01-25T17:16:21.700Z,101258.94
2023-01-25T17:18:48.607Z,101252.81
2023-01-25T17:21:16.903Z,101255.97
2023-01-25T17:23:43.713Z,101258.03
2023-01-25T17:26:12.957Z,101254.00
2023-01-25T17:28:41.442Z,101262.78
2023-01-25T17:31:20.188Z,101266.78
2023-01-25T17:33:47.085Z,101269.53
2023-01-25T17:36:15.102Z,101280.22
2023-01-25T17:38:42.548Z,101292.19
2023-01-25T17:41:12.348Z,101292.09
2023-01-25T17:43:39.159Z,101300.97
2023-01-25T17:46:13.965Z,101303.31
2023-01-25T17:48:40.985Z,101303.09
2023-01-25T17:51:08.576Z,101296.69
2023-01-25T17:53:35.287Z,101287.78
2023-01-25T17:56:05.310Z,101289.41
2023-01-25T17:58:35.615Z,101295.88
2023-01-25T18:01:13.858Z,101298.19
2023-01-25T18:03:43.935Z,101299.75
2023-01-25T18:06:13.980Z,101292.09
2023-01-25T18:08:42.372Z,101288.94
2023-01-25T18:11:10.607Z,101279.19
2023-01-25T18:13:46.113Z,101295.19
2023-01-25T18:16:14.424Z,101287.63
2023-01-25T18:18:43.259Z,101271.66
2023-01-25T18:21:22.146Z,101280.97
2023-01-25T18:23:48.926Z,101276.50
2023-01-25T18:26:21.518Z,101285.03
2023-01-25T18:28:48.735Z,101286.38
2023-01-25T18:31:17.500Z,101291.16
2023-01-25T18:33:45.022Z,101289.75
2023-01-25T18:36:19.292Z,101290.53
2023-01-25T18:38:46.945Z,101269.44
2023-01-25T18:41:13.908Z,101269.28
2023-01-25T18:43:40.897Z,101286.19
2023-01-25T18:46:08.887Z,101301.16
2023-01-25T18:48:36.316Z,101304.31
2023-01-25T18:51:14.269Z,101316.81
2023-01-25T18:53:42.615Z,101311.09
2023-01-25T18:56:15.248Z,101305.00
2023-01-25T18:58:42.371Z,101297.75
2023-01-25T19:01:15.851Z,101303.84
2023-01-25T19:03:43.705Z,101316.91
2023-01-25T19:06:10.972Z,101317.31
2023-01-25T19:08:43.290Z,101309.97
2023-01-25T19:11:15.476Z,101312.22
2023-01-25T19:13:43.041Z,101304.41
2023-01-25T19:16:19.644Z,101314.56
2023-01-25T19:18:50.075Z,101309.22
2023-01-25T19:21:27.726Z,101321.19
2023-01-25T19:23:56.116Z,101325.22
2023-01-25T19:26:25.642Z,101312.06
2023-01-25T19:28:53.251Z,101313.91
2023-01-25T19:31:22.637Z,101316.34
2023-01-25T19:33:54.716Z,101314.25
2023-01-25T19:36:22.361Z,101319.59
2023-01-25T19:38:49.773Z,101307.06
2023-01-25T19:41:20.020Z,101302.47
2023-01-25T19:43:47.620Z,101298.69
2023-01-25T19:46:19.776Z,101318.19
2023-01-25T19:48:50.071Z,101326.53
2023-01-25T19:51:19.864Z,101316.16
2023-01-25T19:53:52.223Z,101312.38
2023-01-25T19:56:19.243Z,101303.44
2023-01-25T19:58:48.119Z,101316.00
2023-01-25T20:01:17.190Z,101306.50
2023-01-25T20:03:44.611Z,101316.84
2023-01-25T20:06:12.404Z,101329.75
2023-01-25T20:08:41.228Z,101327.38
2023-01-25T20:11:13.665Z,101326.44
2023-01-25T20:13:41.417Z,101317.78
2023-01-25T20:16:10.204Z,101313.56
2023-01-25T20:18:36.969Z,101320.72
2023-01-25T20:21:07.173Z,101317.78
2023-01-25T20:23:39.745Z,101314.88
2023-01-25T20:26:09.380Z,101322.41
2023-01-25T20:28:37.216Z,101328.75
2023-01-25T20:31:04.798Z,101330.28
2023-01-25T20:33:34.409Z,101330.63
2023-01-25T20:36:05.717Z,101331.63
2023-01-25T20:38:34.435Z,101324.69
2023-01-25T20:41:06.437Z,101328.31
2023-01-25T20:43:35.275Z,101318.84
2023-01-25T20:46:02.967Z,101316.81
2023-01-25T20:48:36.281Z,101344.00
2023-01-25T20:51:13.079Z,101337.56
2023-01-25T20:53:41.037Z,101336.19
2023-01-25T20:56:09.175Z,101329.59
2023-01-25T20:58:35.908Z,101335.69
2023-01-25T21:01:02.646Z,101338.06
2023-01-25T21:03:30.207Z,101336.00
2023-01-25T21:05:59.418Z,101340.28
2023-01-25T21:08:26.641Z,101337.91
2023-01-25T21:10:58.250Z,101340.47
2023-01-25T21:13:26.350Z,101337.59
2023-01-25T21:16:05.397Z,101339.66
2023-01-25T21:18:34.967Z,101342.38
2023-01-25T21:21:07.605Z,101340.00
2023-01-25T21:23:35.885Z,101352.41
2023-01-25T21:26:03.811Z,101352.38
2023-01-25T21:28:30.498Z,101340.88
2023-01-25T21:30:57.453Z,101347.31
2023-01-25T21:33:24.622Z,101354.47
2023-01-25T21:35:54.383Z,101366.50
2023-01-25T21:38:21.628Z,101353.28
2023-01-25T21:40:48.295Z,101345.16
2023-01-25T21:43:17.987Z,101346.97
2023-01-25T21:46:03.180Z,101342.94
2023-01-25T21:48:48.549Z,101344.97
2023-01-25T21:51:34.106Z,101341.56
2023-01-25T21:54:00.945Z,101361.59
2023-01-25T21:56:28.840Z,101357.88
2023-01-25T21:58:55.517Z,101362.28
2023-01-25T22:01:23.189Z,101367.88
2023-01-25T22:03:50.909Z,101368.22
2023-01-25T22:06:18.453Z,101366.38
2023-01-25T22:08:46.095Z,101377.03
2023-01-25T22:11:14.110Z,101380.13
2023-01-25T22:13:41.169Z,101372.47
2023-01-25T22:16:10.206Z,101370.44
2023-01-25T22:18:42.129Z,101378.44
2023-01-25T22:21:17.618Z,101382.66
2023-01-25T22:23:45.483Z,101385.88
2023-01-25T22:26:14.494Z,101394.34
2023-01-25T22:28:55.981Z,101380.44
2023-01-25T22:31:25.275Z,101387.22
2023-01-25T22:33:52.960Z,101385.88
2023-01-25T22:36:22.071Z,101386.22
2023-01-25T22:38:49.564Z,101376.53
2023-01-25T22:41:18.987Z,101374.34
2023-01-25T22:43:45.995Z,101384.34
2023-01-25T22:46:15.691Z,101385.72
2023-01-25T22:48:42.400Z,101382.31
2023-01-25T22:51:13.342Z,101397.09
2023-01-25T22:53:39.992Z,101372.66
2023-01-25T22:56:17.575Z,101376.03
2023-01-25T22:58:45.391Z,101380.78
2023-01-25T23:01:18.632Z,101378.25
2023-01-25T23:03:45.845Z,101382.31
2023-01-25T23:06:15.938Z,101393.50
2023-01-25T23:08:44.236Z,101392.16
2023-01-25T23:11:13.477Z,101389.94
2023-01-25T23:13:40.501Z,101379.09
2023-01-25T23:16:09.716Z,101386.38
2023-01-25T23:18:52.035Z,101384.16
2023-01-25T23:21:21.879Z,101385.19
2023-01-25T23:23:49.475Z,101392.78
2023-01-25T23:26:16.548Z,101398.06
2023-01-25T23:28:43.449Z,101391.47
2023-01-25T23:31:18.200Z,101395.88
2023-01-25T23:33:46.667Z,101400.78
2023-01-25T23:36:20.982Z,101394.50
2023-01-25T23:38:50.428Z,101398.88
2023-01-25T23:41:19.018Z,101390.59
2023-01-25T23:43:45.837Z,101395.69
2023-01-25T23:46:15.895Z,101393.47
2023-01-25T23:48:46.728Z,101393.59
2023-01-25T23:51:15.179Z,101396.81
2023-01-25T23:53:42.641Z,101395.31
2023-01-25T23:56:13.603Z,101399.53
2023-01-25T23:58:40.595Z,101396.31
